Time;durP1;ratioP1;P1;durP2;ratioP2;P2;SDS_P1;SDS_P2;PMS_P1;PMS_P2;Temp;Humidity;BMP_temperature;BMP_pressure;BME280_temperature;BME280_humidity;BME280_pressure;Samples;Min_cycle;Max_cycle;Signal;HPM_P1;HPM_P2
2022/11/30 00:00:24;;;;;;;;;;;7.60;99.90;;;;;;5112676;28;19907;-42
2022/11/30 00:02:52;;;;;;;;;;;7.60;99.90;;;;;;5112167;28;20015;-42
2022/11/30 00:05:18;;;;;;;;;;;7.60;99.90;;;;;;5105850;28;19919;-41
2022/11/30 00:07:43;;;;;;;;;;;7.60;99.90;;;;;;5095888;28;19908;-42
2022/11/30 00:10:09;;;;;;;;;;;7.60;99.90;;;;;;5100280;28;20290;-41
2022/11/30 00:12:35;;;;;;;;;;;7.60;99.90;;;;;;5114463;28;20165;-42
2022/11/30 00:15:00;;;;;;;;;;;7.60;99.90;;;;;;5114631;28;19919;-40
2022/11/30 00:17:25;;;;;;;;;;;7.60;99.90;;;;;;5116076;28;19908;-43
2022/11/30 00:19:51;;;;;;;;;;;7.60;99.90;;;;;;5115180;27;19923;-42
2022/11/30 00:22:16;;;;;;;;;;;7.60;99.90;;;;;;5115810;28;19912;-42
2022/11/30 00:24:42;;;;;;;;;;;7.60;99.90;;;;;;5115452;28;20021;-40
2022/11/30 00:27:07;;;;;;;;;;;7.60;99.90;;;;;;5115237;27;19912;-43
2022/11/30 00:29:33;;;;;;;;;;;7.60;99.90;;;;;;5115982;28;19908;-42
2022/11/30 00:31:58;;;;;;;;;;;7.50;99.90;;;;;;5114644;28;19919;-42
2022/11/30 00:34:23;;;;;;;;;;;7.50;99.90;;;;;;5115865;28;20041;-42
2022/11/30 00:36:49;;;;;;;;;;;7.50;99.90;;;;;;5115624;28;19919;-40
2022/11/30 00:39:14;;;;;;;;;;;7.50;99.90;;;;;;5114916;28;20401;-41
2022/11/30 00:41:40;;;;;;;;;;;7.50;99.90;;;;;;5115301;28;19908;-40
2022/11/30 00:44:05;;;;;;;;;;;7.50;99.90;;;;;;5115466;28;19909;-40
2022/11/30 00:46:31;;;;;;;;;;;7.50;99.90;;;;;;5114824;28;19914;-42
2022/11/30 00:48:56;;;;;;;;;;;7.50;99.90;;;;;;5115298;28;20377;-41
2022/11/30 00:51:22;;;;;;;;;;;7.50;99.90;;;;;;5115334;28;20416;-41
2022/11/30 00:53:47;;;;;;;;;;;7.40;99.90;;;;;;5114355;28;20302;-41
2022/11/30 00:56:13;;;;;;;;;;;7.40;99.90;;;;;;5115341;28;19908;-41
2022/11/30 00:58:39;;;;;;;;;;;7.40;99.90;;;;;;5115251;28;19920;-41
2022/11/30 01:01:05;;;;;;;;;;;7.40;99.90;;;;;;5113688;28;19915;-41
2022/11/30 01:03:30;;;;;;;;;;;7.40;99.90;;;;;;5111234;28;19912;-42
2022/11/30 01:06:03;;;;;;;;;;;7.30;99.90;;;;;;5114741;28;20727;-41
2022/11/30 01:08:29;;;;;;;;;;;7.30;99.90;;;;;;5114071;28;20022;-41
2022/11/30 01:10:56;;;;;;;;;;;7.30;99.90;;;;;;5115077;28;19961;-41
2022/11/30 01:13:22;;;;;;;;;;;7.30;99.90;;;;;;5114609;28;19912;-42
2022/11/30 01:15:47;;;;;;;;;;;7.20;99.90;;;;;;5113942;28;19908;-40
2022/11/30 01:18:13;;;;;;;;;;;7.10;99.90;;;;;;5114913;28;19912;-41
2022/11/30 01:20:40;;;;;;;;;;;7.00;99.90;;;;;;5114585;28;19918;-41
2022/11/30 01:23:05;;;;;;;;;;;7.00;99.90;;;;;;5113840;28;20388;-43
2022/11/30 01:25:30;;;;;;;;;;;6.90;99.90;;;;;;5114904;28;19912;-42
2022/11/30 01:27:56;;;;;;;;;;;6.90;99.90;;;;;;5114657;28;19919;-40
2022/11/30 01:30:21;;;;;;;;;;;6.90;99.90;;;;;;5113560;28;20319;-40
2022/11/30 01:32:47;;;;;;;;;;;6.80;99.90;;;;;;5114386;27;19912;-41
2022/11/30 01:35:12;;;;;;;;;;;6.80;99.90;;;;;;5113942;28;19977;-41
2022/11/30 01:37:38;;;;;;;;;;;6.80;99.90;;;;;;5114615;28;19908;-42
2022/11/30 01:40:04;;;;;;;;;;;6.80;99.90;;;;;;5114131;28;19969;-42
2022/11/30 01:42:29;;;;;;;;;;;6.90;99.90;;;;;;5113536;28;19912;-40
2022/11/30 01:44:56;;;;;;;;;;;6.90;99.90;;;;;;5114216;28;19908;-42
2022/11/30 01:47:42;;;;;;;;;;;6.90;99.90;;;;;;5114277;28;20270;-40
2022/11/30 01:50:07;;;;;;;;;;;6.90;99.90;;;;;;5113352;28;19907;-42
2022/11/30 01:52:37;;;;;;;;;;;6.90;99.90;;;;;;5114233;28;19916;-42
2022/11/30 01:55:05;;;;;;;;;;;7.00;99.90;;;;;;5107502;28;19995;-42
2022/11/30 01:57:47;;;;;;;;;;;7.00;99.90;;;;;;5110886;28;20054;-41
2022/11/30 02:00:13;;;;;;;;;;;7.00;99.90;;;;;;5113466;28;20370;-42
2022/11/30 02:02:39;;;;;;;;;;;7.00;99.90;;;;;;5114030;28;20014;-41
2022/11/30 02:05:04;;;;;;;;;;;7.00;99.90;;;;;;5113221;28;19908;-40
2022/11/30 02:07:30;;;;;;;;;;;7.00;99.90;;;;;;5113937;28;19919;-42
2022/11/30 02:09:55;;;;;;;;;;;7.00;99.90;;;;;;5113499;27;19920;-41
2022/11/30 02:12:36;;;;;;;;;;;7.00;99.90;;;;;;5094269;28;20416;-41
2022/11/30 02:15:05;;;;;;;;;;;7.00;99.90;;;;;;5093075;28;20366;-42
2022/11/30 02:17:37;;;;;;;;;;;7.10;99.90;;;;;;5092645;28;20366;-41
2022/11/30 02:20:08;;;;;;;;;;;7.10;99.90;;;;;;5093186;28;19923;-42
2022/11/30 02:22:52;;;;;;;;;;;7.10;99.90;;;;;;5093422;28;19918;-40
2022/11/30 02:25:27;;;;;;;;;;;7.00;99.90;;;;;;5092269;28;20374;-41
2022/11/30 02:28:03;;;;;;;;;;;7.00;99.90;;;;;;5093280;28;19912;-42
2022/11/30 02:30:32;;;;;;;;;;;7.00;99.90;;;;;;5110146;28;19919;-40
2022/11/30 02:33:00;;;;;;;;;;;7.10;99.90;;;;;;5112672;28;19908;-42
2022/11/30 02:35:27;;;;;;;;;;;7.10;99.90;;;;;;5113411;28;19915;-43
2022/11/30 02:37:53;;;;;;;;;;;7.10;99.90;;;;;;5113202;28;19912;-41
2022/11/30 02:40:20;;;;;;;;;;;7.10;99.90;;;;;;5112610;28;20354;-41
2022/11/30 02:42:48;;;;;;;;;;;7.10;99.90;;;;;;5113081;28;20319;-40
2022/11/30 02:45:13;;;;;;;;;;;7.10;99.90;;;;;;5113535;28;19908;-42
2022/11/30 02:48:05;;;;;;;;;;;7.10;99.90;;;;;;5112246;28;19980;-42
2022/11/30 02:50:34;;;;;;;;;;;7.10;99.90;;;;;;5090769;28;19912;-40
2022/11/30 02:53:00;;;;;;;;;;;7.10;99.90;;;;;;5091809;28;20367;-42
2022/11/30 02:55:27;;;;;;;;;;;7.10;99.90;;;;;;5092889;28;19947;-43
2022/11/30 02:57:52;;;;;;;;;;;7.10;99.90;;;;;;5100400;28;19912;-43
2022/11/30 03:00:18;;;;;;;;;;;7.20;99.90;;;;;;5112312;28;19916;-41
2022/11/30 03:02:43;;;;;;;;;;;7.20;99.90;;;;;;5111764;28;19957;-40
2022/11/30 03:05:09;;;;;;;;;;;7.20;99.90;;;;;;5113243;28;19915;-40
2022/11/30 03:07:35;;;;;;;;;;;7.20;99.90;;;;;;5112090;28;20364;-42
2022/11/30 03:10:00;;;;;;;;;;;7.20;99.90;;;;;;5112295;28;19980;-41
2022/11/30 03:12:26;;;;;;;;;;;7.20;99.90;;;;;;5113163;28;19908;-41
2022/11/30 03:14:51;;;;;;;;;;;7.20;99.90;;;;;;5112290;28;20376;-41
2022/11/30 03:17:17;;;;;;;;;;;7.20;99.90;;;;;;5112828;28;19970;-42
2022/11/30 03:19:42;;;;;;;;;;;7.20;99.90;;;;;;5112598;28;19916;-41
2022/11/30 03:22:07;;;;;;;;;;;7.20;99.90;;;;;;5112385;28;20389;-41
2022/11/30 03:24:33;;;;;;;;;;;7.20;99.90;;;;;;5112963;28;19908;-41
2022/11/30 03:26:58;;;;;;;;;;;7.20;99.90;;;;;;5112834;28;20002;-40
2022/11/30 03:29:24;;;;;;;;;;;7.20;99.90;;;;;;5111752;28;19911;-41
2022/11/30 03:31:49;;;;;;;;;;;7.20;99.90;;;;;;5112963;28;19916;-40
2022/11/30 03:34:15;;;;;;;;;;;7.20;99.90;;;;;;5112952;28;19961;-40
2022/11/30 03:36:40;;;;;;;;;;;7.20;99.90;;;;;;5111713;28;19912;-40
2022/11/30 03:39:06;;;;;;;;;;;7.20;99.90;;;;;;5112741;28;19915;-42
2022/11/30 03:41:31;;;;;;;;;;;7.20;99.90;;;;;;5112332;28;19912;-42
2022/11/30 03:43:57;;;;;;;;;;;7.20;99.90;;;;;;5095617;28;19916;-42
2022/11/30 03:46:22;;;;;;;;;;;7.20;99.90;;;;;;5103763;28;19912;-42
2022/11/30 03:48:48;;;;;;;;;;;7.30;99.90;;;;;;5116125;28;19914;-41
2022/11/30 03:51:13;;;;;;;;;;;7.20;99.90;;;;;;5116691;28;20082;-43
2022/11/30 03:53:39;;;;;;;;;;;7.30;99.90;;;;;;5116559;28;19915;-40
2022/11/30 03:56:06;;;;;;;;;;;7.30;99.90;;;;;;5115311;28;20399;-41
2022/11/30 03:58:32;;;;;;;;;;;7.20;99.90;;;;;;5116588;28;19916;-41
2022/11/30 04:00:58;;;;;;;;;;;7.20;99.90;;;;;;5116503;28;20278;-41
2022/11/30 04:03:24;;;;;;;;;;;7.20;99.90;;;;;;5115642;28;19908;-42
2022/11/30 04:05:49;;;;;;;;;;;7.20;99.90;;;;;;5115920;28;19995;-41
2022/11/30 04:08:14;;;;;;;;;;;7.20;99.90;;;;;;5116096;28;19908;-42
2022/11/30 04:10:40;;;;;;;;;;;7.20;99.90;;;;;;5115454;28;19911;-41
2022/11/30 04:13:05;;;;;;;;;;;7.30;99.90;;;;;;5116059;28;19907;-41
2022/11/30 04:15:31;;;;;;;;;;;7.20;99.90;;;;;;5116225;28;20304;-42
2022/11/30 04:17:56;;;;;;;;;;;7.30;99.90;;;;;;5115151;28;19916;-41
2022/11/30 04:20:22;;;;;;;;;;;7.20;99.90;;;;;;5116063;28;19916;-41
2022/11/30 04:22:47;;;;;;;;;;;7.20;99.90;;;;;;5115650;28;19908;-44
2022/11/30 04:25:13;;;;;;;;;;;7.20;99.90;;;;;;5115128;28;19908;-41
2022/11/30 04:27:38;;;;;;;;;;;7.20;99.90;;;;;;5115625;28;20002;-42
2022/11/30 04:30:04;;;;;;;;;;;7.20;99.90;;;;;;5115666;28;19907;-40
2022/11/30 04:32:30;;;;;;;;;;;7.20;99.90;;;;;;5114899;28;20381;-40
2022/11/30 04:34:55;;;;;;;;;;;7.20;99.90;;;;;;5115545;28;19962;-43
2022/11/30 04:37:21;;;;;;;;;;;7.20;99.90;;;;;;5115785;28;19912;-40
2022/11/30 04:39:46;;;;;;;;;;;7.20;99.90;;;;;;5114518;28;19915;-42
2022/11/30 04:42:12;;;;;;;;;;;7.20;99.90;;;;;;5115641;28;19912;-42
2022/11/30 04:44:37;;;;;;;;;;;7.20;99.90;;;;;;5115170;28;19918;-43
2022/11/30 04:47:03;;;;;;;;;;;7.20;99.90;;;;;;5114837;28;20379;-41
2022/11/30 04:49:28;;;;;;;;;;;7.20;99.90;;;;;;5115245;28;19908;-40
2022/11/30 04:51:54;;;;;;;;;;;7.20;99.90;;;;;;5115092;28;19908;-41
2022/11/30 04:54:19;;;;;;;;;;;7.20;99.90;;;;;;5114279;28;19908;-43
2022/11/30 04:56:44;;;;;;;;;;;7.20;99.90;;;;;;5115237;28;19955;-41
2022/11/30 04:59:10;;;;;;;;;;;7.20;99.90;;;;;;5114188;28;19923;-41
2022/11/30 05:01:35;;;;;;;;;;;7.20;99.90;;;;;;5115308;28;19908;-40
2022/11/30 05:04:01;;;;;;;;;;;7.20;99.90;;;;;;5115132;28;19908;-41
2022/11/30 05:06:26;;;;;;;;;;;7.20;99.90;;;;;;5114085;28;20286;-41
2022/11/30 05:08:52;;;;;;;;;;;7.20;99.90;;;;;;5114774;28;19966;-42
2022/11/30 05:11:17;;;;;;;;;;;7.20;99.90;;;;;;5115175;28;19907;-42
2022/11/30 05:13:43;;;;;;;;;;;7.20;99.90;;;;;;5114335;28;19912;-41
2022/11/30 05:16:09;;;;;;;;;;;7.20;99.90;;;;;;5114389;28;19942;-43
2022/11/30 05:18:35;;;;;;;;;;;7.20;99.90;;;;;;5114875;28;19916;-40
2022/11/30 05:21:00;;;;;;;;;;;7.20;99.90;;;;;;5114131;28;19915;-42
2022/11/30 05:23:26;;;;;;;;;;;7.10;99.90;;;;;;5114895;28;20377;-42
2022/11/30 05:25:51;;;;;;;;;;;7.10;99.90;;;;;;5114385;28;19912;-41
2022/11/30 05:28:17;;;;;;;;;;;7.10;99.90;;;;;;5114043;28;19908;-40
2022/11/30 05:30:42;;;;;;;;;;;7.10;99.90;;;;;;5114725;28;19908;-42
2022/11/30 05:33:08;;;;;;;;;;;7.10;99.90;;;;;;5114687;28;19908;-42
2022/11/30 05:35:33;;;;;;;;;;;7.10;99.90;;;;;;5113519;28;19911;-40
2022/11/30 05:37:59;;;;;;;;;;;7.10;99.90;;;;;;5114553;28;19911;-41
2022/11/30 05:40:26;;;;;;;;;;;7.10;99.90;;;;;;5114424;28;20289;-41
2022/11/30 05:42:59;;;;;;;;;;;7.00;99.90;;;;;;5096949;28;19919;-40
2022/11/30 05:45:25;;;;;;;;;;;7.10;99.90;;;;;;5103345;28;20369;-41
2022/11/30 05:47:50;;;;;;;;;;;7.10;99.90;;;;;;5114234;28;19939;-41
2022/11/30 05:50:16;;;;;;;;;;;7.00;99.90;;;;;;5113575;28;19916;-40
2022/11/30 05:52:41;;;;;;;;;;;7.00;99.90;;;;;;5113713;28;19908;-42
2022/11/30 05:55:07;;;;;;;;;;;7.10;99.90;;;;;;5113956;28;19947;-42
2022/11/30 05:57:36;;;;;;;;;;;7.00;99.90;;;;;;5113610;28;19907;-42
2022/11/30 06:00:05;;;;;;;;;;;7.00;99.90;;;;;;5114006;28;19938;-40
2022/11/30 06:02:31;;;;;;;;;;;7.00;99.90;;;;;;5113100;28;20373;-41
2022/11/30 06:04:56;;;;;;;;;;;7.00;99.90;;;;;;5112788;28;19961;-41
2022/11/30 06:07:22;;;;;;;;;;;7.00;99.90;;;;;;5113907;28;20377;-42
2022/11/30 06:09:47;;;;;;;;;;;7.00;99.90;;;;;;5112571;28;19920;-41
2022/11/30 06:12:13;;;;;;;;;;;7.00;99.90;;;;;;5113881;28;19961;-42
2022/11/30 06:14:38;;;;;;;;;;;7.00;99.90;;;;;;5113684;28;19927;-41
2022/11/30 06:17:03;;;;;;;;;;;7.00;99.90;;;;;;5113098;28;19915;-43
2022/11/30 06:19:29;;;;;;;;;;;7.00;99.90;;;;;;5113367;28;19923;-42
2022/11/30 06:21:54;;;;;;;;;;;6.90;99.90;;;;;;5113673;28;20281;-41
2022/11/30 06:24:20;;;;;;;;;;;7.00;99.90;;;;;;5112967;28;19951;-41
2022/11/30 06:26:45;;;;;;;;;;;7.00;99.90;;;;;;5113212;28;19919;-40
2022/11/30 06:29:11;;;;;;;;;;;7.00;99.90;;;;;;5113613;28;19920;-41
2022/11/30 06:31:36;;;;;;;;;;;7.00;99.90;;;;;;5112922;28;20396;-40
2022/11/30 06:34:02;;;;;;;;;;;7.00;99.90;;;;;;5113533;28;19908;-42
2022/11/30 06:36:27;;;;;;;;;;;7.00;99.90;;;;;;5112976;28;19969;-41
2022/11/30 06:38:53;;;;;;;;;;;7.00;99.90;;;;;;5112380;28;19922;-41
2022/11/30 06:41:19;;;;;;;;;;;7.00;99.90;;;;;;5113204;28;19907;-41
2022/11/30 06:43:44;;;;;;;;;;;7.00;99.90;;;;;;5100228;28;20356;-41
2022/11/30 06:46:10;;;;;;;;;;;7.00;99.90;;;;;;5112425;28;20392;-40
2022/11/30 06:48:35;;;;;;;;;;;7.00;99.90;;;;;;5113349;28;19912;-44
2022/11/30 06:51:03;;;;;;;;;;;7.00;99.90;;;;;;5113176;28;20019;-42
2022/11/30 06:53:29;;;;;;;;;;;7.00;99.90;;;;;;5112133;28;19918;-41
2022/11/30 06:55:54;;;;;;;;;;;7.00;99.90;;;;;;5113034;28;19907;-42
2022/11/30 06:58:19;;;;;;;;;;;7.00;99.90;;;;;;5113207;28;19908;-42
2022/11/30 07:00:45;;;;;;;;;;;7.00;99.90;;;;;;5112493;28;20002;-41
2022/11/30 07:03:11;;;;;;;;;;;6.90;99.90;;;;;;5112861;28;20278;-41
2022/11/30 07:05:44;;;;;;;;;;;6.90;99.90;;;;;;5112890;28;19908;-40
2022/11/30 07:08:10;;;;;;;;;;;6.90;99.90;;;;;;5113151;28;19908;-41
2022/11/30 07:10:42;;;;;;;;;;;6.90;99.90;;;;;;5113182;28;19915;-40
2022/11/30 07:13:09;;;;;;;;;;;6.90;99.90;;;;;;5111895;28;19915;-40
2022/11/30 07:15:34;;;;;;;;;;;6.90;99.90;;;;;;5115146;28;19943;-40
2022/11/30 07:18:00;;;;;;;;;;;6.80;99.90;;;;;;5117207;28;20029;-40
2022/11/30 07:20:26;;;;;;;;;;;6.90;99.90;;;;;;5116414;28;19920;-43
2022/11/30 07:22:54;;;;;;;;;;;6.80;99.90;;;;;;5116709;28;19908;-41
2022/11/30 07:28:06;;;;;;;;;;;6.90;99.90;;;;;;5116643;28;19915;-43
2022/11/30 07:30:31;;;;;;;;;;;6.90;99.90;;;;;;5107619;28;19923;-40
2022/11/30 07:32:57;;;;;;;;;;;6.90;99.90;;;;;;5113572;28;19915;-41
2022/11/30 07:35:22;;;;;;;;;;;6.90;99.90;;;;;;5115998;28;20278;-41
2022/11/30 07:37:48;;;;;;;;;;;6.90;99.90;;;;;;5116992;28;19994;-41
2022/11/30 07:40:13;;;;;;;;;;;6.90;99.90;;;;;;5116666;28;19920;-42
2022/11/30 07:42:39;;;;;;;;;;;6.80;99.90;;;;;;5115801;28;19908;-41
2022/11/30 07:45:04;;;;;;;;;;;6.90;99.90;;;;;;5116644;27;19908;-41
2022/11/30 07:47:30;;;;;;;;;;;6.90;99.90;;;;;;5116755;28;19908;-40
2022/11/30 07:49:56;;;;;;;;;;;6.90;99.90;;;;;;5114009;28;19995;-41
2022/11/30 07:52:21;;;;;;;;;;;6.90;99.90;;;;;;5116152;28;19911;-41
2022/11/30 07:54:47;;;;;;;;;;;6.90;99.90;;;;;;5114459;28;20010;-41
2022/11/30 07:57:12;;;;;;;;;;;6.90;99.90;;;;;;5113733;28;19961;-41
2022/11/30 07:59:37;;;;;;;;;;;6.90;99.90;;;;;;5115385;28;19924;-42
2022/11/30 08:02:03;;;;;;;;;;;6.90;99.90;;;;;;5114169;28;19907;-40
2022/11/30 08:04:28;;;;;;;;;;;6.90;99.90;;;;;;5115013;28;20381;-41
2022/11/30 08:06:54;;;;;;;;;;;6.90;99.90;;;;;;5115023;28;19961;-40
2022/11/30 08:09:19;;;;;;;;;;;6.90;99.90;;;;;;5114089;28;19965;-44
2022/11/30 08:11:45;;;;;;;;;;;6.90;99.90;;;;;;5114621;28;19918;-40
2022/11/30 08:14:11;;;;;;;;;;;6.90;99.90;;;;;;5114649;28;19912;-42
2022/11/30 08:16:37;;;;;;;;;;;6.90;99.90;;;;;;5112619;28;19977;-42
2022/11/30 08:19:02;;;;;;;;;;;6.90;99.90;;;;;;5114161;28;19924;-41
2022/11/30 08:21:28;;;;;;;;;;;6.90;99.90;;;;;;5094624;28;19931;-42
2022/11/30 08:23:57;;;;;;;;;;;6.90;99.90;;;;;;5105973;28;19912;-44
2022/11/30 08:26:24;;;;;;;;;;;6.90;99.90;;;;;;5102861;28;20259;-42
2022/11/30 08:28:50;;;;;;;;;;;6.90;99.90;;;;;;5094941;28;19991;-43
2022/11/30 08:31:18;;;;;;;;;;;6.90;99.90;;;;;;5104499;28;19919;-40
2022/11/30 08:33:43;;;;;;;;;;;6.90;99.90;;;;;;5114891;28;20498;-40
2022/11/30 08:36:15;;;;;;;;;;;6.90;99.90;;;;;;5114979;28;20157;-41
2022/11/30 08:38:41;;;;;;;;;;;6.90;99.90;;;;;;5114301;28;20387;-41
2022/11/30 08:41:07;;;;;;;;;;;6.90;99.90;;;;;;5114519;28;20340;-42
2022/11/30 08:43:33;;;;;;;;;;;6.90;99.90;;;;;;5115041;28;19958;-40
2022/11/30 08:46:00;;;;;;;;;;;6.90;99.90;;;;;;5114230;28;19939;-41
2022/11/30 08:48:26;;;;;;;;;;;6.90;99.90;;;;;;5114546;28;19908;-40
2022/11/30 08:50:51;;;;;;;;;;;6.90;99.90;;;;;;5114314;28;19915;-41
2022/11/30 08:53:17;;;;;;;;;;;6.90;99.90;;;;;;5113305;28;20336;-42
2022/11/30 08:55:42;;;;;;;;;;;6.90;99.90;;;;;;5114795;28;19915;-42
2022/11/30 08:58:07;;;;;;;;;;;6.90;99.90;;;;;;5114254;28;19908;-40
2022/11/30 09:00:33;;;;;;;;;;;6.90;99.90;;;;;;5113958;28;20393;-42
2022/11/30 09:02:58;;;;;;;;;;;6.90;99.90;;;;;;5114772;28;19966;-40
2022/11/30 09:05:24;;;;;;;;;;;6.90;99.90;;;;;;5110825;28;19916;-42
2022/11/30 09:07:49;;;;;;;;;;;7.00;99.90;;;;;;5103063;28;19909;-44
2022/11/30 09:10:15;;;;;;;;;;;7.00;99.90;;;;;;5101229;28;20006;-41
2022/11/30 09:12:40;;;;;;;;;;;7.00;99.90;;;;;;5113613;28;19935;-42
2022/11/30 09:15:07;;;;;;;;;;;7.00;99.90;;;;;;5114164;28;19931;-42
2022/11/30 09:17:32;;;;;;;;;;;7.00;99.90;;;;;;5114507;28;19908;-40
2022/11/30 09:19:58;;;;;;;;;;;7.00;99.90;;;;;;5113463;28;19923;-41
2022/11/30 09:22:23;;;;;;;;;;;7.00;99.90;;;;;;5114040;28;19914;-43
2022/11/30 09:24:49;;;;;;;;;;;7.10;99.90;;;;;;5114279;28;19908;-41
2022/11/30 09:27:14;;;;;;;;;;;7.10;99.90;;;;;;5113094;28;19907;-40
2022/11/30 09:29:40;;;;;;;;;;;7.10;99.90;;;;;;5114077;28;19912;-41
2022/11/30 09:32:05;;;;;;;;;;;7.00;99.90;;;;;;5113919;28;20354;-41
2022/11/30 09:34:31;;;;;;;;;;;7.10;99.90;;;;;;5113214;28;19998;-40
2022/11/30 09:36:56;;;;;;;;;;;7.10;99.90;;;;;;5114205;28;19912;-42
2022/11/30 09:39:22;;;;;;;;;;;7.10;99.90;;;;;;5112597;28;19950;-42
2022/11/30 09:41:47;;;;;;;;;;;7.10;99.90;;;;;;5100662;28;19911;-39
2022/11/30 09:44:13;;;;;;;;;;;7.10;99.90;;;;;;5104761;28;20010;-41
2022/11/30 09:46:42;;;;;;;;;;;7.10;99.90;;;;;;5113463;27;20247;-40
2022/11/30 09:49:20;;;;;;;;;;;7.20;99.90;;;;;;5112527;28;20366;-41
2022/11/30 09:51:47;;;;;;;;;;;7.10;99.90;;;;;;5109318;28;20096;-44
2022/11/30 09:54:19;;;;;;;;;;;7.10;99.90;;;;;;5113353;28;19912;-41
2022/11/30 09:56:45;;;;;;;;;;;7.10;99.90;;;;;;5112787;28;19916;-41
2022/11/30 09:59:17;;;;;;;;;;;7.10;99.90;;;;;;5113273;28;19968;-40
2022/11/30 10:01:43;;;;;;;;;;;7.10;99.90;;;;;;5105710;28;20286;-40
2022/11/30 10:04:22;;;;;;;;;;;7.10;99.90;;;;;;5107532;28;19912;-41
2022/11/30 10:07:08;;;;;;;;;;;7.20;99.90;;;;;;5112577;28;19912;-40
2022/11/30 10:09:45;;;;;;;;;;;7.30;99.90;;;;;;5105315;28;19927;-41
2022/11/30 10:12:18;;;;;;;;;;;7.30;99.90;;;;;;5113073;28;19947;-41
2022/11/30 10:14:49;;;;;;;;;;;7.40;99.90;;;;;;5113217;28;19908;-42
2022/11/30 10:17:34;;;;;;;;;;;7.40;99.90;;;;;;5112248;28;19961;-42
2022/11/30 10:20:02;;;;;;;;;;;7.50;99.90;;;;;;5113127;28;19915;-42
2022/11/30 10:22:33;;;;;;;;;;;7.50;99.90;;;;;;5112984;28;19931;-40
2022/11/30 10:24:58;;;;;;;;;;;7.50;99.90;;;;;;5112514;28;19908;-40
2022/11/30 10:27:32;;;;;;;;;;;7.50;99.90;;;;;;5112398;28;19912;-40
2022/11/30 10:29:59;;;;;;;;;;;7.60;99.90;;;;;;5112248;28;19973;-40
2022/11/30 10:32:28;;;;;;;;;;;7.60;99.90;;;;;;5113023;28;19990;-41
2022/11/30 10:34:56;;;;;;;;;;;7.60;99.90;;;;;;5112961;28;19939;-44
2022/11/30 10:37:27;;;;;;;;;;;7.60;99.90;;;;;;5111935;28;19958;-41
2022/11/30 10:39:53;;;;;;;;;;;7.60;99.90;;;;;;5112796;28;19916;-40
2022/11/30 10:42:21;;;;;;;;;;;7.60;99.90;;;;;;5112080;28;19918;-42
2022/11/30 10:45:00;;;;;;;;;;;7.70;99.90;;;;;;5112030;28;19917;-42
2022/11/30 10:47:30;;;;;;;;;;;7.70;99.90;;;;;;5112075;28;19931;-41
2022/11/30 10:49:55;;;;;;;;;;;7.70;99.90;;;;;;5112382;28;19931;-41
2022/11/30 10:52:23;;;;;;;;;;;7.70;99.90;;;;;;5111513;28;20370;-42
2022/11/30 10:54:49;;;;;;;;;;;7.70;99.90;;;;;;5111670;28;19920;-41
2022/11/30 10:57:15;;;;;;;;;;;7.70;99.90;;;;;;5111412;28;19964;-43
2022/11/30 10:59:40;;;;;;;;;;;7.70;99.90;;;;;;5111690;28;20002;-40
2022/11/30 11:02:24;;;;;;;;;;;7.60;99.90;;;;;;5112288;28;19988;-41
2022/11/30 11:05:06;;;;;;;;;;;7.60;99.90;;;;;;5111665;28;19959;-40
2022/11/30 11:07:32;;;;;;;;;;;7.60;99.90;;;;;;5106381;28;19919;-40
2022/11/30 11:10:00;;;;;;;;;;;7.60;99.90;;;;;;5091973;28;19955;-42
2022/11/30 11:12:29;;;;;;;;;;;7.60;99.90;;;;;;5093228;28;20193;-42
2022/11/30 11:15:07;;;;;;;;;;;7.60;99.90;;;;;;5110847;28;19908;-41
2022/11/30 11:17:33;;;;;;;;;;;7.60;99.90;;;;;;5110558;28;19912;-42
2022/11/30 11:19:58;;;;;;;;;;;7.60;99.90;;;;;;5109552;28;20434;-41
2022/11/30 11:22:25;;;;;;;;;;;7.60;99.90;;;;;;5110422;28;20820;-42
2022/11/30 11:24:52;;;;;;;;;;;7.60;99.90;;;;;;5111494;28;20006;-40
2022/11/30 11:27:31;;;;;;;;;;;7.60;99.90;;;;;;5110931;28;19931;-43
2022/11/30 11:29:56;;;;;;;;;;;7.60;99.90;;;;;;5111017;28;19915;-41
2022/11/30 11:32:26;;;;;;;;;;;7.60;99.90;;;;;;5110687;28;19920;-43
2022/11/30 11:34:52;;;;;;;;;;;7.60;99.90;;;;;;5110710;28;19911;-42
2022/11/30 11:37:20;;;;;;;;;;;7.60;99.90;;;;;;5110644;28;19912;-42
2022/11/30 11:39:56;;;;;;;;;;;7.60;99.90;;;;;;5112191;28;20019;-41
2022/11/30 11:42:22;;;;;;;;;;;7.50;99.90;;;;;;5111837;28;19962;-42
2022/11/30 11:44:51;;;;;;;;;;;7.60;99.90;;;;;;5104799;28;20001;-45
2022/11/30 11:47:23;;;;;;;;;;;7.50;99.90;;;;;;5104230;28;19916;-41
2022/11/30 11:49:49;;;;;;;;;;;7.50;99.90;;;;;;5112269;28;20342;-44
2022/11/30 11:52:19;;;;;;;;;;;7.50;99.90;;;;;;5102854;28;19922;-42
2022/11/30 11:54:53;;;;;;;;;;;7.50;99.90;;;;;;5110986;28;19951;-41
2022/11/30 11:57:20;;;;;;;;;;;7.50;99.90;;;;;;5110631;28;19911;-42
2022/11/30 11:59:49;;;;;;;;;;;7.50;99.90;;;;;;5112026;28;19989;-43
2022/11/30 12:02:14;;;;;;;;;;;7.50;99.90;;;;;;5112646;28;19958;-41
2022/11/30 12:04:40;;;;;;;;;;;7.50;99.90;;;;;;5116082;28;19943;-41
2022/11/30 12:07:13;;;;;;;;;;;7.50;99.90;;;;;;5114460;28;19911;-42
2022/11/30 12:09:42;;;;;;;;;;;7.50;99.90;;;;;;5115165;28;19920;-41
2022/11/30 12:12:11;;;;;;;;;;;7.50;99.90;;;;;;5115693;28;19919;-41
2022/11/30 12:14:37;;;;;;;;;;;7.50;99.90;;;;;;5116072;27;19967;-42
2022/11/30 12:17:04;;;;;;;;;;;7.50;99.90;;;;;;5107959;28;20406;-41
2022/11/30 12:19:47;;;;;;;;;;;7.50;99.90;;;;;;5115379;28;19923;-42
2022/11/30 12:22:15;;;;;;;;;;;7.50;99.90;;;;;;5114480;28;20350;-43
2022/11/30 12:24:57;;;;;;;;;;;7.60;99.90;;;;;;5115023;28;20331;-40
2022/11/30 12:27:39;;;;;;;;;;;7.60;99.90;;;;;;5102391;28;19987;-40
2022/11/30 12:30:08;;;;;;;;;;;7.60;99.90;;;;;;5093129;28;20325;-44
2022/11/30 12:32:34;;;;;;;;;;;7.70;99.90;;;;;;5104343;28;19923;-41
2022/11/30 12:35:31;;;;;;;;;;;7.70;99.90;;;;;;5114569;28;19907;-42
2022/11/30 12:38:05;;;;;;;;;;;7.60;99.90;;;;;;5069807;28;20354;-40
2022/11/30 12:40:30;;;;;;;;;;;7.60;99.90;;;;;;5094284;28;20350;-41
2022/11/30 12:42:56;;;;;;;;;;;7.60;99.90;;;;;;5106734;28;19918;-41
2022/11/30 12:45:24;;;;;;;;;;;7.60;99.90;;;;;;5094416;28;20003;-43
2022/11/30 12:47:58;;;;;;;;;;;7.60;99.90;;;;;;5094157;28;19967;-42
2022/11/30 12:50:23;;;;;;;;;;;7.60;99.90;;;;;;5093166;28;19939;-42
2022/11/30 12:52:49;;;;;;;;;;;7.60;99.90;;;;;;5093978;28;20343;-42
2022/11/30 12:55:30;;;;;;;;;;;7.50;99.90;;;;;;5093736;28;19908;-40
2022/11/30 12:58:04;;;;;;;;;;;7.50;99.90;;;;;;5092998;28;20010;-40
2022/11/30 13:00:36;;;;;;;;;;;7.50;99.90;;;;;;5094004;28;19923;-40
2022/11/30 13:03:24;;;;;;;;;;;7.40;99.90;;;;;;5093868;28;20259;-40
2022/11/30 13:05:55;;;;;;;;;;;7.40;99.90;;;;;;5087025;28;20362;-42
2022/11/30 13:08:22;;;;;;;;;;;7.40;99.90;;;;;;5093801;28;19908;-40
2022/11/30 13:10:56;;;;;;;;;;;7.40;99.90;;;;;;5093204;28;20286;-41
2022/11/30 13:13:27;;;;;;;;;;;7.40;99.90;;;;;;5100850;28;19914;-41
2022/11/30 13:15:53;;;;;;;;;;;7.40;99.90;;;;;;5114364;28;19916;-41
2022/11/30 13:18:20;;;;;;;;;;;7.40;99.90;;;;;;5094372;28;19957;-41
2022/11/30 13:20:49;;;;;;;;;;;7.40;99.90;;;;;;5100898;28;19931;-41
2022/11/30 13:23:14;;;;;;;;;;;7.40;99.90;;;;;;5112932;28;19911;-41
2022/11/30 13:25:46;;;;;;;;;;;7.40;99.90;;;;;;5112795;28;19916;-42
2022/11/30 13:28:21;;;;;;;;;;;7.40;99.90;;;;;;5113776;28;19912;-42
2022/11/30 13:30:48;;;;;;;;;;;7.30;99.90;;;;;;5113893;28;19936;-41
2022/11/30 13:33:35;;;;;;;;;;;7.40;99.90;;;;;;5113357;28;19914;-49
2022/11/30 13:36:05;;;;;;;;;;;7.30;99.90;;;;;;5113808;28;19918;-41
2022/11/30 13:38:31;;;;;;;;;;;7.30;99.90;;;;;;5113009;27;20381;-42
2022/11/30 13:40:58;;;;;;;;;;;7.30;99.90;;;;;;5113219;28;19916;-40
2022/11/30 13:43:25;;;;;;;;;;;7.30;99.90;;;;;;5113237;28;19908;-42
2022/11/30 13:46:01;;;;;;;;;;;7.20;99.90;;;;;;5113838;27;19963;-44
2022/11/30 13:48:35;;;;;;;;;;;7.30;99.90;;;;;;5113160;28;20262;-42
2022/11/30 13:51:01;;;;;;;;;;;7.20;99.90;;;;;;5111737;28;19919;-41
2022/11/30 13:53:33;;;;;;;;;;;7.30;99.90;;;;;;5112747;28;20300;-42
2022/11/30 13:56:06;;;;;;;;;;;7.20;99.90;;;;;;5112891;28;19918;-42
2022/11/30 13:58:33;;;;;;;;;;;7.30;99.90;;;;;;5113344;28;19912;-42
2022/11/30 14:01:01;;;;;;;;;;;7.20;99.90;;;;;;5113005;28;19920;-41
2022/11/30 14:03:28;;;;;;;;;;;7.20;99.90;;;;;;5112892;28;19922;-42
2022/11/30 14:06:20;;;;;;;;;;;7.20;99.90;;;;;;5113024;28;19963;-41
2022/11/30 14:08:45;;;;;;;;;;;7.20;99.90;;;;;;5075032;28;19944;-43
2022/11/30 14:11:29;;;;;;;;;;;7.20;99.90;;;;;;5106287;28;19911;-41
2022/11/30 14:13:55;;;;;;;;;;;7.20;99.90;;;;;;5113153;28;19908;-43
2022/11/30 14:16:26;;;;;;;;;;;7.20;99.90;;;;;;5112496;28;19964;-40
2022/11/30 14:18:52;;;;;;;;;;;7.20;99.90;;;;;;5113142;28;20479;-41
2022/11/30 14:21:20;;;;;;;;;;;7.20;99.90;;;;;;5112160;28;19939;-45
2022/11/30 14:24:05;;;;;;;;;;;7.20;99.90;;;;;;5107227;28;20007;-41
2022/11/30 14:26:39;;;;;;;;;;;7.10;99.90;;;;;;5102026;28;20015;-43
2022/11/30 14:29:09;;;;;;;;;;;7.20;99.90;;;;;;5100555;28;19961;-40
2022/11/30 14:31:47;;;;;;;;;;;7.10;99.90;;;;;;5105991;28;19919;-40
2022/11/30 14:34:15;;;;;;;;;;;7.10;99.90;;;;;;5099967;28;20358;-41
2022/11/30 14:36:44;;;;;;;;;;;7.10;99.90;;;;;;5103914;28;19908;-42